Terminal Aerodrome Forecast
Issued by NWS

Current Version | Previous Version | Text Only | Print | Product List | Glossary On
Versions: 1 2 3 4 5 6 7 8 9 10 11 12 13
000
FTUS42 KMHX 261143
TAFOAJ
TAF
KOAJ 261143Z 2612/2712 03006KT 2SM BR VCSH OVC003
     FM261300 01007KT 3SM BR VCSH OVC003
     FM261500 03005KT P6SM OVC007
     FM261800 35007KT P6SM OVC015
     FM270000 00000KT P6SM BKN050
      AMD LTD TO CLD VIS AND WIND=

USA.gov is the U.S. government's official web portal to all federal, state and local government web resources and services.